Time;durP1;ratioP1;P1;durP2;ratioP2;P2;SDS_P1;SDS_P2;PMS_P1;PMS_P2;Temp;Humidity;BMP_temperature;BMP_pressure;BME280_temperature;BME280_humidity;BME280_pressure;Samples;Min_cycle;Max_cycle;Signal;HPM_P1;HPM_P2
2021/12/17 00:00:07;;;;;;;9.88;5.53;;;;;;;1.51;60.55;94536.09;4959579;28;20045;-74
2021/12/17 00:05:13;;;;;;;6.72;4.40;;;;;;;1.60;60.33;94547.75;4949433;28;21117;-74
2021/12/17 00:07:40;;;;;;;6.32;4.00;;;;;;;1.62;60.04;94545.66;4960483;28;20026;-74
2021/12/17 00:10:17;;;;;;;7.70;4.95;;;;;;;1.50;59.88;94539.72;4953435;28;20118;-75
2021/12/17 00:12:42;;;;;;;9.38;5.65;;;;;;;1.45;59.63;94531.00;4957296;28;20119;-74
2021/12/17 00:15:09;;;;;;;10.68;6.20;;;;;;;1.19;60.15;94520.09;4955019;28;20532;-74
2021/12/17 00:17:46;;;;;;;6.30;4.13;;;;;;;1.39;59.98;94558.94;4955324;28;20038;-74
2021/12/17 00:50:16;;;;;;;6.50;4.07;;;;;;;1.10;60.56;94558.19;4956877;28;20738;-74
2021/12/17 00:52:42;;;;;;;7.70;4.50;;;;;;;1.05;60.96;94538.97;4957120;28;20062;-74
2021/12/17 00:55:09;;;;;;;8.27;4.82;;;;;;;1.11;60.98;94540.66;4957083;28;20114;-75
2021/12/17 00:57:40;;;;;;;6.88;4.43;;;;;;;1.13;60.55;94544.63;4957627;28;20027;-74
2021/12/17 01:00:10;;;;;;;14.52;6.28;;;;;;;0.91;60.97;94542.91;4954707;28;20035;-74
2021/12/17 01:02:37;;;;;;;11.40;6.85;;;;;;;0.94;61.06;94545.06;4959241;28;20026;-74
2021/12/17 01:05:12;;;;;;;9.15;6.25;;;;;;;1.05;60.44;94531.13;4956554;28;20046;-74
2021/12/17 01:07:41;;;;;;;9.27;5.53;;;;;;;1.01;60.34;94545.72;4954879;28;20596;-74
2021/12/17 01:10:12;;;;;;;6.45;3.65;;;;;;;0.86;60.39;94516.63;4956811;28;20034;-75
2021/12/17 01:12:37;;;;;;;7.57;4.07;;;;;;;0.92;60.19;94526.19;4956883;28;20544;-74
2021/12/17 01:15:07;;;;;;;6.68;4.00;;;;;;;0.85;60.04;94504.56;4956580;28;20386;-74
2021/12/17 01:17:37;;;;;;;5.80;3.72;;;;;;;0.83;59.93;94502.22;4954776;28;20066;-74
2021/12/17 01:20:23;;;;;;;6.20;4.38;;;;;;;0.92;59.91;94521.75;4953689;28;20510;-74
2021/12/17 01:36:30;;;;;;;7.40;3.25;;;;;;;0.86;59.11;94490.44;4960086;28;20045;-74
2021/12/17 01:44:05;;;;;;;5.75;3.50;;;;;;;1.35;58.56;94499.38;4960207;28;20041;-75
2021/12/17 01:46:33;;;;;;;5.65;3.40;;;;;;;1.09;58.45;94464.91;4958532;28;20513;-74
2021/12/17 02:00:09;;;;;;;8.35;4.43;;;;;;;0.93;59.35;94491.13;4956600;28;20063;-73
2021/12/17 02:02:43;;;;;;;5.50;3.78;;;;;;;0.77;59.26;94462.03;4955911;28;20038;-74
2021/12/17 02:05:13;;;;;;;5.03;3.55;;;;;;;0.67;59.32;94463.69;4958803;28;20471;-74
2021/12/17 02:07:40;;;;;;;7.72;4.82;;;;;;;0.78;59.73;94489.03;4959719;28;20038;-73
2021/12/17 02:19:28;;;;;;;8.07;4.85;;;;;;;0.99;59.34;94506.66;4955579;28;20476;-74
2021/12/17 02:31:59;;;;;;;6.43;4.38;;;;;;;1.32;59.20;94489.38;4953326;28;20607;-74
2021/12/17 02:34:55;;;;;;;5.43;4.00;;;;;;;1.15;59.37;94486.75;4956806;28;20035;-74
2021/12/17 02:37:24;;;;;;;4.32;3.17;;;;;;;1.04;59.78;94477.13;4960559;28;20050;-74
2021/12/17 02:45:32;;;;;;;7.05;4.13;;;;;;;1.19;59.41;94470.31;4963044;28;20157;-74
2021/12/17 02:48:01;;;;;;;6.40;3.75;;;;;;;1.38;59.51;94483.97;4960432;28;20442;-74
2021/12/17 02:50:28;;;;;;;6.75;4.00;;;;;;;1.20;59.65;94452.75;4959898;28;20058;-75
2021/12/17 02:52:56;;;;;;;7.00;3.97;;;;;;;1.32;59.39;94487.56;4961737;28;20050;-74
2021/12/17 02:55:22;;;;;;;6.25;4.63;;;;;;;1.45;59.63;94486.44;4957680;28;20026;-75
2021/12/17 02:57:48;;;;;;;6.35;3.55;;;;;;;1.54;59.24;94472.69;4959485;28;20043;-74
2021/12/17 03:00:15;;;;;;;6.95;3.83;;;;;;;1.76;59.01;94485.84;4961643;28;20050;-74
2021/12/17 03:02:41;;;;;;;6.43;4.90;;;;;;;1.81;59.19;94488.53;4961664;28;20409;-75
2021/12/17 03:05:08;;;;;;;6.85;4.10;;;;;;;1.89;59.13;94495.22;4956521;28;20520;-75
2021/12/17 03:07:38;;;;;;;5.25;4.57;;;;;;;2.03;58.55;94496.44;4961497;28;20046;-74
2021/12/17 03:10:08;;;;;;;5.75;4.32;;;;;;;2.04;58.99;94490.16;4961069;28;20377;-75
2021/12/17 03:12:56;;;;;;;6.40;4.65;;;;;;;1.82;59.38;94473.56;4960216;28;20142;-74
2021/12/17 03:15:39;;;;;;;8.40;4.60;;;;;;;1.88;59.54;94494.41;4960847;28;20375;-75
2021/12/17 03:23:33;;;;;;;7.63;4.25;;;;;;;1.66;60.69;94481.25;4962749;28;20049;-74
2021/12/17 03:26:01;;;;;;;7.18;4.30;;;;;;;1.56;61.27;94465.38;4959154;28;20053;-74
2021/12/17 03:28:27;;;;;;;9.13;4.72;;;;;;;1.61;61.64;94457.59;4962376;28;20360;-74
2021/12/17 03:30:53;;;;;;;9.70;3.85;;;;;;;1.86;62.05;94485.19;4956782;28;20062;-75
2021/12/17 03:33:20;;;;;;;9.60;4.22;;;;;;;1.81;61.87;94472.00;4960901;28;20109;-75
2021/12/17 03:35:46;;;;;;;13.30;7.82;;;;;;;2.01;61.97;94485.41;4961351;28;20722;-74
2021/12/17 03:38:12;;;;;;;6.88;3.92;;;;;;;1.84;62.50;94471.50;4961969;28;20039;-74
2021/12/17 03:40:42;;;;;;;4.70;3.50;;;;;;;1.99;62.46;94490.09;4958501;28;20109;-74
2021/12/17 03:43:13;;;;;;;5.40;3.50;;;;;;;1.89;62.53;94461.91;4961033;28;20470;-75
2021/12/17 03:45:40;;;;;;;5.68;4.10;;;;;;;2.03;62.64;94459.72;4963214;28;20166;-74
2021/12/17 03:48:07;;;;;;;5.88;3.80;;;;;;;2.27;62.21;94471.56;4959746;28;20037;-74
2021/12/17 03:50:37;;;;;;;7.32;4.05;;;;;;;2.15;63.08;94468.28;4955189;28;20403;-74
2021/12/17 03:53:07;;;;;;;4.25;3.92;;;;;;;2.30;63.03;94465.81;4941423;28;20276;-75
2021/12/17 03:55:33;;;;;;;6.13;4.10;;;;;;;2.19;63.23;94464.13;4961731;28;20037;-73
2021/12/17 03:57:59;;;;;;;4.63;3.53;;;;;;;1.93;63.98;94449.09;4955422;28;20039;-74
2021/12/17 04:00:25;;;;;;;6.75;3.58;;;;;;;1.87;65.19;94460.53;4942866;28;20468;-74
2021/12/17 04:02:51;;;;;;;7.13;4.13;;;;;;;1.91;65.69;94451.19;4961027;28;20514;-74
2021/12/17 04:05:17;;;;;;;7.50;4.35;;;;;;;1.97;65.00;94452.81;4938453;28;20318;-75
2021/12/17 04:07:42;;;;;;;7.63;3.28;;;;;;;1.74;64.67;94421.53;4958603;28;20153;-74
2021/12/17 04:10:08;;;;;;;3.53;3.22;;;;;;;1.82;65.43;94444.72;4958200;28;20018;-75
2021/12/17 04:12:47;;;;;;;8.02;3.72;;;;;;;1.60;65.68;94424.53;4960029;28;20034;-73
2021/12/17 04:15:14;;;;;;;5.40;4.15;;;;;;;1.83;65.93;94435.81;4958641;28;20568;-75
2021/12/17 04:17:47;;;;;;;5.38;3.92;;;;;;;1.90;65.52;94436.47;4956296;28;20501;-75
2021/12/17 04:20:13;;;;;;;5.03;4.00;;;;;;;1.99;65.12;94429.75;4955329;28;20042;-75
2021/12/17 04:22:38;;;;;;;3.05;2.65;;;;;;;1.94;65.12;94424.44;4961485;28;20031;-74
2021/12/17 04:25:05;;;;;;;2.45;2.17;;;;;;;1.89;64.59;94412.06;4957145;28;20069;-75
2021/12/17 04:27:30;;;;;;;3.15;1.98;;;;;;;1.70;65.59;94415.19;4957166;28;20034;-74
2021/12/17 04:29:57;;;;;;;2.45;2.25;;;;;;;1.72;66.25;94397.41;4954366;28;20298;-75
2021/12/17 04:32:23;;;;;;;2.97;2.30;;;;;;;1.88;66.14;94404.44;4960341;28;20047;-74
2021/12/17 04:34:48;;;;;;;2.60;2.10;;;;;;;1.87;65.80;94381.84;4955863;28;20109;-74
2021/12/17 04:37:15;;;;;;;3.25;2.15;;;;;;;1.96;65.34;94388.28;4963295;28;20069;-73
2021/12/17 04:39:42;;;;;;;3.03;2.25;;;;;;;2.27;64.27;94386.75;4942219;28;20089;-74
2021/12/17 04:42:15;;;;;;;3.78;2.20;;;;;;;2.18;63.34;94378.53;4956739;28;20506;-74
2021/12/17 04:44:48;;;;;;;2.63;1.98;;;;;;;2.18;63.40;94377.75;4960873;28;20524;-75
2021/12/17 04:57:50;;;;;;;2.30;1.52;;;;;;;2.21;61.53;94349.16;4962288;28;20414;-74
2021/12/17 05:00:20;;;;;;;7.82;4.25;;;;;;;2.28;62.07;94383.09;4957919;28;20201;-74
2021/12/17 05:02:50;;;;;;;3.17;2.15;;;;;;;2.38;61.98;94384.00;4955896;28;20039;-74
2021/12/17 05:05:20;;;;;;;2.95;2.20;;;;;;;2.17;62.48;94358.59;4959181;28;20458;-75
2021/12/17 05:07:53;;;;;;;5.32;3.83;;;;;;;2.29;62.81;94390.75;4958391;28;20037;-75
2021/12/17 05:18:26;;;;;;;2.77;2.33;;;;;;;2.38;64.13;94389.25;4958568;28;20042;-74
2021/12/17 05:20:57;;;;;;;2.30;2.10;;;;;;;2.33;63.74;94370.81;4957334;28;20415;-74
2021/12/17 05:23:30;;;;;;;2.88;2.08;;;;;;;2.51;63.05;94373.09;4959068;28;20039;-75
2021/12/17 05:25:56;;;;;;;3.33;2.97;;;;;;;2.52;62.49;94385.19;4957345;28;20046;-74
2021/12/17 05:28:22;;;;;;;2.72;2.40;;;;;;;2.42;62.63;94377.22;4959402;28;20027;-74
2021/12/17 05:30:48;;;;;;;1.88;1.75;;;;;;;2.51;62.57;94396.72;4958560;28;20541;-73
2021/12/17 05:33:19;;;;;;;5.03;2.30;;;;;;;2.49;62.70;94406.69;4957083;28;20039;-74
2021/12/17 05:35:45;;;;;;;1.80;1.70;;;;;;;2.39;63.32;94380.34;4938333;28;20069;-75
2021/12/17 05:38:12;;;;;;;3.05;2.00;;;;;;;2.42;63.73;94364.09;4956459;28;20061;-74
2021/12/17 05:40:39;;;;;;;2.97;2.22;;;;;;;2.67;63.13;94378.47;4934027;28;20058;-74
2021/12/17 05:43:06;;;;;;;3.33;2.78;;;;;;;2.62;62.85;94349.53;4956883;28;20022;-74
2021/12/17 05:45:35;;;;;;;3.67;2.28;;;;;;;2.56;62.53;94367.09;4951617;28;20066;-74
2021/12/17 05:48:06;;;;;;;1.50;1.40;;;;;;;2.55;62.36;94372.63;4960967;28;20129;-74
2021/12/17 05:50:33;;;;;;;2.30;1.90;;;;;;;2.34;61.91;94361.91;4953143;28;20109;-74
2021/12/17 05:52:59;;;;;;;2.00;1.88;;;;;;;2.37;61.20;94356.16;4955913;28;20046;-74
2021/12/17 05:55:25;;;;;;;2.38;1.77;;;;;;;2.47;61.32;94374.63;4958599;28;20031;-75
2021/12/17 05:57:52;;;;;;;1.40;1.30;;;;;;;2.32;61.52;94348.25;4956432;28;20133;-74
2021/12/17 06:00:19;;;;;;;1.80;1.40;;;;;;;2.37;60.94;94366.66;4959887;28;20041;-74
2021/12/17 06:02:45;;;;;;;1.98;1.55;;;;;;;2.41;61.14;94373.00;4942892;28;20583;-74
2021/12/17 06:05:10;;;;;;;2.45;2.08;;;;;;;2.45;61.12;94400.34;4958985;28;20058;-75
2021/12/17 06:07:36;;;;;;;2.25;1.42;;;;;;;2.31;61.75;94393.09;4959919;28;20027;-75
2021/12/17 06:10:04;;;;;;;2.00;1.80;;;;;;;2.21;61.54;94380.66;4961036;28;20023;-74
2021/12/17 06:12:29;;;;;;;1.95;1.70;;;;;;;2.20;62.21;94394.06;4959703;28;20062;-74
2021/12/17 06:14:55;;;;;;;2.15;1.92;;;;;;;2.26;62.36;94406.16;4961957;28;20814;-74
2021/12/17 06:17:20;;;;;;;1.50;1.40;;;;;;;2.15;62.26;94394.78;4959222;28;20101;-74
2021/12/17 06:19:46;;;;;;;2.58;2.22;;;;;;;2.07;62.21;94417.00;4962765;28;20037;-74
2021/12/17 06:22:12;;;;;;;1.88;1.77;;;;;;;2.12;62.48;94428.59;4961210;28;20469;-74
2021/12/17 06:24:37;;;;;;;2.15;1.90;;;;;;;2.09;62.70;94406.25;4943597;28;20046;-73
2021/12/17 06:27:03;;;;;;;3.63;2.30;;;;;;;2.04;62.80;94403.59;4960717;28;20034;-74
2021/12/17 06:29:29;;;;;;;3.20;2.55;;;;;;;2.30;62.35;94426.47;4962193;28;20042;-74
2021/12/17 06:31:54;;;;;;;2.63;2.22;;;;;;;2.36;62.41;94414.94;4963442;28;20043;-75
2021/12/17 06:34:19;;;;;;;3.58;2.05;;;;;;;2.24;62.74;94393.31;4960401;28;20611;-74
2021/12/17 06:36:45;;;;;;;3.03;2.50;;;;;;;2.37;62.99;94419.16;4963856;28;20544;-74
2021/12/17 06:39:10;;;;;;;3.72;2.38;;;;;;;2.24;63.85;94409.06;4944676;28;20046;-74
2021/12/17 06:41:38;;;;;;;2.63;2.00;;;;;;;2.23;64.69;94394.34;4960673;28;20066;-74
2021/12/17 06:44:06;;;;;;;1.90;1.80;;;;;;;2.21;65.62;94414.78;4958436;28;20046;-75
2021/12/17 06:46:45;;;;;;;2.67;2.45;;;;;;;2.02;66.22;94384.66;4941611;28;20482;-74
2021/12/17 07:21:08;;;;;;;5.95;3.28;;;;;;;1.70;71.09;94433.56;4960810;28;19933;-74
2021/12/17 07:23:24;;;;;;;;;;;;;;;1.75;71.11;94442.28;4958056;28;20039;-74
2021/12/17 07:33:43;;;;;;;3.97;3.53;;;;;;;1.81;71.38;94417.72;4957694;28;20049;-75
2021/12/17 07:36:15;;;;;;;6.25;3.72;;;;;;;1.58;72.02;94395.13;4962176;28;20414;-74
2021/12/17 07:38:48;;;;;;;3.78;3.45;;;;;;;1.70;72.15;94405.50;4943655;28;20061;-74
2021/12/17 07:41:14;;;;;;;7.30;3.80;;;;;;;1.72;72.41;94408.66;4963490;28;20537;-75
2021/12/17 07:43:50;;;;;;;5.45;3.88;;;;;;;1.73;72.33;94402.38;4954310;28;20033;-74
2021/12/17 07:46:16;;;;;;;6.50;3.65;;;;;;;1.48;72.77;94383.69;4963106;28;20084;-74
2021/12/17 07:48:42;;;;;;;7.07;4.10;;;;;;;1.56;73.20;94405.06;4958190;28;20513;-76
2021/12/17 07:51:10;;;;;;;6.00;3.75;;;;;;;1.45;73.85;94416.44;4963038;28;20043;-75
2021/12/17 07:53:36;;;;;;;4.47;3.58;;;;;;;1.47;74.03;94408.34;4941886;28;20047;-75
2021/12/17 07:56:05;;;;;;;4.97;3.90;;;;;;;1.52;73.68;94418.91;4960737;28;20594;-74
2021/12/17 07:58:31;;;;;;;6.28;3.50;;;;;;;1.36;73.99;94402.16;4961217;28;20894;-73
2021/12/17 08:00:58;;;;;;;7.05;3.67;;;;;;;1.37;73.96;94398.53;4961693;28;20073;-73
2021/12/17 08:03:24;;;;;;;5.78;4.05;;;;;;;1.28;74.15;94399.19;4962022;28;20134;-74
2021/12/17 08:05:51;;;;;;;10.60;7.07;;;;;;;1.55;73.87;94423.66;4961814;28;20171;-73
2021/12/17 08:08:17;;;;;;;12.88;8.63;;;;;;;1.63;73.73;94429.28;4938486;28;20047;-74
2021/12/17 08:10:42;;;;;;;7.60;5.93;;;;;;;1.40;73.88;94403.28;4962312;28;20407;-75
2021/12/17 08:13:14;;;;;;;11.82;9.00;;;;;;;1.62;73.86;94432.91;4959270;28;20508;-74
2021/12/17 08:15:47;;;;;;;12.30;6.80;;;;;;;1.58;73.69;94416.09;4957191;28;20042;-75
2021/12/17 08:18:31;;;;;;;7.97;5.18;;;;;;;1.62;73.56;94442.63;4960302;28;20109;-74
2021/12/17 08:24:32;;;;;;;6.53;4.22;;;;;;;1.63;73.16;94421.41;4958340;28;20049;-74
2021/12/17 08:26:54;;;;;;;7.72;5.93;;;;;;;1.77;73.38;94407.94;4960006;28;21047;-74
2021/12/17 08:32:07;;;;;;;8.35;4.07;;;;;;;1.87;72.42;94408.09;4961019;28;20498;-74
2021/12/17 08:34:33;;;;;;;4.68;3.40;;;;;;;1.90;71.85;94399.75;4958955;28;20121;-75
2021/12/17 08:36:59;;;;;;;4.88;3.97;;;;;;;1.74;71.49;94380.38;4961333;28;20042;-74
2021/12/17 08:39:26;;;;;;;4.93;3.42;;;;;;;1.89;71.61;94396.34;4959191;28;20449;-75
2021/12/17 08:41:54;;;;;;;5.72;3.10;;;;;;;1.90;71.45;94397.13;4960170;28;20513;-74
2021/12/17 08:44:20;;;;;;;7.18;4.32;;;;;;;2.04;70.93;94407.00;4959297;28;20035;-75
2021/12/17 08:46:46;;;;;;;6.88;4.32;;;;;;;2.06;70.59;94398.88;4959496;28;21037;-75
2021/12/17 08:49:11;;;;;;;6.15;3.50;;;;;;;2.04;70.58;94398.34;4944421;28;20037;-74
2021/12/17 08:51:38;;;;;;;8.00;3.85;;;;;;;2.13;70.38;94380.31;4958621;28;20132;-74
2021/12/17 08:54:04;;;;;;;3.88;2.97;;;;;;;2.11;69.30;94359.56;4956875;28;20045;-74
2021/12/17 08:56:32;;;;;;;4.50;3.45;;;;;;;2.24;69.09;94388.06;4960614;28;20043;-74
2021/12/17 08:59:01;;;;;;;3.25;2.95;;;;;;;2.28;68.49;94389.16;4960065;28;21016;-74
2021/12/17 09:01:26;;;;;;;4.55;3.17;;;;;;;2.30;68.12;94376.59;4959950;28;20023;-74
2021/12/17 09:03:52;;;;;;;4.18;2.75;;;;;;;2.41;68.17;94383.50;4959650;28;20144;-74
2021/12/17 09:06:17;;;;;;;3.70;3.30;;;;;;;2.58;67.49;94387.84;4960541;28;20075;-74
2021/12/17 09:08:43;;;;;;;4.68;4.03;;;;;;;2.61;67.33;94382.09;4961237;28;20042;-75
2021/12/17 09:11:09;;;;;;;4.78;3.05;;;;;;;2.57;66.68;94376.56;4956733;28;20486;-74
2021/12/17 09:13:34;;;;;;;2.83;2.63;;;;;;;2.44;66.83;94350.72;4960084;28;20577;-75
2021/12/17 09:16:06;;;;;;;4.57;3.15;;;;;;;2.56;66.78;94369.72;4959784;28;20045;-74
2021/12/17 09:18:32;;;;;;;5.40;3.78;;;;;;;2.70;66.25;94370.09;4956024;28;20138;-75
2021/12/17 09:20:58;;;;;;;3.00;2.65;;;;;;;2.72;66.02;94355.69;4958369;28;20047;-75
2021/12/17 09:23:23;;;;;;;3.55;3.00;;;;;;;2.71;66.15;94353.28;4957362;28;20493;-75
2021/12/17 09:25:49;;;;;;;2.97;2.33;;;;;;;2.87;65.77;94355.81;4956952;28;20033;-74
2021/12/17 09:28:15;;;;;;;3.83;3.45;;;;;;;2.75;65.37;94328.09;4958725;28;20049;-74
2021/12/17 09:30:40;;;;;;;4.70;3.38;;;;;;;2.96;65.47;94353.50;4959534;28;20050;-74
2021/12/17 09:33:06;;;;;;;5.25;3.58;;;;;;;3.02;65.38;94362.22;4953289;28;20042;-75
2021/12/17 09:35:32;;;;;;;3.92;3.53;;;;;;;2.96;65.21;94353.50;4955284;28;20042;-75
2021/12/17 09:37:57;;;;;;;5.05;4.35;;;;;;;2.57;65.76;94291.72;4959526;28;20043;-75
2021/12/17 09:40:23;;;;;;;5.32;3.00;;;;;;;2.90;65.79;94359.75;4957374;28;20055;-74
2021/12/17 09:42:49;;;;;;;4.63;3.70;;;;;;;2.66;66.59;94321.75;4961277;28;20433;-75
2021/12/17 09:45:16;;;;;;;8.25;4.32;;;;;;;2.94;66.39;94342.44;4957233;28;20066;-75
2021/12/17 09:47:43;;;;;;;5.72;4.18;;;;;;;2.89;66.57;94337.94;4958856;28;20512;-74
2021/12/17 09:50:10;;;;;;;6.35;4.43;;;;;;;2.81;66.72;94325.28;4956835;28;20409;-75
2021/12/17 09:52:36;;;;;;;10.85;5.03;;;;;;;2.82;67.13;94334.75;4960196;28;20031;-75
2021/12/17 09:55:05;;;;;;;5.70;4.43;;;;;;;2.85;67.10;94330.81;4958923;28;20460;-75
2021/12/17 09:57:35;;;;;;;5.72;4.97;;;;;;;2.64;67.60;94318.59;4960671;28;20038;-75
2021/12/17 10:00:22;;;;;;;6.22;4.78;;;;;;;2.69;68.15;94318.63;4958018;28;20039;-74
2021/12/17 10:02:50;;;;;;;5.20;4.25;;;;;;;2.69;68.44;94323.88;4958895;28;20051;-75
2021/12/17 10:05:19;;;;;;;13.02;8.45;;;;;;;2.82;67.59;94310.31;4956490;28;20038;-74
2021/12/17 10:07:45;;;;;;;7.20;5.53;;;;;;;2.71;68.06;94296.31;4956930;28;20031;-74
2021/12/17 10:10:13;;;;;;;5.93;5.25;;;;;;;2.85;67.49;94301.91;4957557;28;20030;-74
2021/12/17 10:12:40;;;;;;;7.10;4.90;;;;;;;2.42;67.64;94243.31;4958521;28;20580;-74
2021/12/17 10:15:13;;;;;;;7.72;5.22;;;;;;;2.77;67.84;94281.38;4960004;28;20053;-75
2021/12/17 10:18:01;;;;;;;9.38;6.70;;;;;;;2.85;68.05;94280.91;4941279;28;20035;-75
2021/12/17 10:20:32;;;;;;;6.65;4.72;;;;;;;2.80;67.05;94249.34;4959036;28;20023;-75
2021/12/17 10:23:04;;;;;;;5.07;4.00;;;;;;;2.68;67.33;94235.63;4940561;28;20083;-74
2021/12/17 10:25:31;;;;;;;3.75;3.20;;;;;;;2.90;66.51;94252.81;4941051;28;20166;-74
2021/12/17 10:28:00;;;;;;;6.28;3.78;;;;;;;2.94;66.60;94243.38;4955874;28;20043;-74
2021/12/17 10:30:27;;;;;;;5.15;2.88;;;;;;;2.82;66.77;94232.28;4959028;28;20042;-74
2021/12/17 10:32:55;;;;;;;3.15;2.80;;;;;;;2.85;66.66;94237.03;4956261;28;20074;-75
2021/12/17 10:35:26;;;;;;;9.38;4.88;;;;;;;2.93;66.35;94246.28;4940567;28;20038;-74
2021/12/17 10:37:57;;;;;;;6.43;4.13;;;;;;;2.71;66.44;94216.72;4937151;28;20046;-75
2021/12/17 10:40:58;;;;;;;4.80;3.47;;;;;;;2.87;66.62;94224.44;4957171;28;20054;-73
2021/12/17 10:43:32;;;;;;;4.57;3.20;;;;;;;2.89;66.22;94216.31;4955335;28;20078;-74
2021/12/17 10:46:11;;;;;;;3.72;3.42;;;;;;;2.76;65.57;94201.00;4958197;28;20655;-74
2021/12/17 10:54:03;;;;;;;5.03;3.45;;;;;;;2.92;65.65;94179.81;4957437;28;20049;-74
2021/12/17 10:56:35;;;;;;;2.92;2.60;;;;;;;2.93;65.38;94188.47;4957148;28;20516;-75
2021/12/17 10:59:06;;;;;;;3.55;3.05;;;;;;;3.09;64.99;94216.38;4960608;28;20048;-74
2021/12/17 11:01:36;;;;;;;4.57;3.40;;;;;;;3.11;65.02;94214.31;4965508;28;20026;-74
2021/12/17 11:04:24;;;;;;;4.78;3.78;;;;;;;3.09;65.02;94205.88;4959411;28;20039;-74
2021/12/17 11:06:51;;;;;;;4.65;3.20;;;;;;;3.17;65.32;94210.66;4963407;28;20160;-74
2021/12/17 11:09:43;;;;;;;9.82;5.65;;;;;;;3.09;65.33;94216.38;4945051;28;20051;-75
2021/12/17 11:12:34;;;;;;;5.32;3.65;;;;;;;2.99;66.02;94218.97;4955329;28;20090;-75
2021/12/17 11:15:09;;;;;;;5.07;3.60;;;;;;;3.03;66.50;94209.56;4956729;28;20055;-74
2021/12/17 11:17:35;;;;;;;8.02;4.28;;;;;;;2.96;67.27;94211.59;4960686;28;20042;-74
2021/12/17 11:20:07;;;;;;;4.25;3.28;;;;;;;2.77;68.30;94190.25;4961887;28;20514;-74
2021/12/17 11:22:32;;;;;;;5.65;4.10;;;;;;;2.59;68.45;94179.38;4942800;28;20034;-74
2021/12/17 11:25:01;;;;;;;5.00;3.45;;;;;;;2.60;69.25;94194.84;4959304;28;20054;-75
2021/12/17 11:27:27;;;;;;;4.78;3.63;;;;;;;2.59;69.65;94174.91;4955650;28;20039;-75
2021/12/17 11:29:54;;;;;;;4.85;3.72;;;;;;;2.75;69.18;94187.06;4956247;28;20038;-74
2021/12/17 11:32:19;;;;;;;4.55;3.15;;;;;;;2.76;69.63;94188.66;4954934;28;20046;-74
2021/12/17 11:34:45;;;;;;;4.15;3.00;;;;;;;2.74;68.93;94163.69;4956837;28;20049;-74
2021/12/17 11:37:11;;;;;;;3.25;2.70;;;;;;;2.70;68.90;94170.47;4956743;28;20457;-74
2021/12/17 11:39:55;;;;;;;3.60;2.88;;;;;;;2.96;68.75;94172.19;4956773;28;20614;-75
2021/12/17 11:42:36;;;;;;;3.97;2.97;;;;;;;3.01;68.54;94177.47;4918965;28;20071;-74
2021/12/17 11:47:48;;;;;;;6.28;3.47;;;;;;;2.95;68.26;94146.97;4920195;29;20670;-74
2021/12/17 11:50:18;;;;;;;3.13;2.83;;;;;;;2.96;68.62;94138.03;4917620;29;20495;-73
2021/12/17 11:52:47;;;;;;;4.68;3.53;;;;;;;3.14;68.30;94145.44;4919118;29;20119;-74
2021/12/17 11:55:21;;;;;;;3.45;2.95;;;;;;;3.05;67.44;94149.63;4922618;29;20758;-74
2021/12/17 11:57:50;;;;;;;3.35;3.05;;;;;;;2.89;67.54;94143.53;4922165;29;20426;-74
2021/12/17 12:00:18;;;;;;;3.30;2.75;;;;;;;2.71;67.98;94124.78;4918283;29;20083;-73
2021/12/17 12:02:50;;;;;;;3.17;2.53;;;;;;;2.73;67.89;94141.09;4915374;29;20130;-74
2021/12/17 12:05:37;;;;;;;7.05;2.60;;;;;;;2.45;68.57;94127.28;4913353;29;20050;-74
2021/12/17 12:08:39;;;;;;;3.63;3.08;;;;;;;2.43;68.97;94160.09;4918817;29;20042;-74
2021/12/17 12:11:08;;;;;;;4.07;2.97;;;;;;;2.28;69.78;94147.69;4915962;29;20455;-75
2021/12/17 12:13:43;;;;;;;5.03;3.72;;;;;;;2.29;69.28;94127.47;4920426;29;20035;-74
2021/12/17 12:16:11;;;;;;;5.72;3.22;;;;;;;2.12;69.35;94132.88;4936034;28;20066;-74
2021/12/17 12:18:42;;;;;;;4.05;3.63;;;;;;;2.13;69.46;94152.81;4908938;29;20067;-75
2021/12/17 12:21:08;;;;;;;7.07;2.95;;;;;;;1.96;69.22;94124.09;4913606;28;20055;-74
2021/12/17 12:23:33;;;;;;;4.13;3.08;;;;;;;2.13;69.17;94137.09;4917643;28;20613;-74
2021/12/17 12:26:05;;;;;;;5.43;3.72;;;;;;;2.13;68.23;94123.97;4916159;29;20223;-74
2021/12/17 12:29:05;;;;;;;3.90;3.05;;;;;;;1.95;68.07;94111.25;4916161;29;20395;-75
2021/12/17 12:31:32;;;;;;;5.95;4.00;;;;;;;1.96;67.96;94110.22;4914916;29;20151;-74
2021/12/17 12:34:04;;;;;;;5.82;3.78;;;;;;;1.94;67.65;94099.16;4917913;28;20032;-74
2021/12/17 12:36:52;;;;;;;4.50;3.55;;;;;;;1.96;66.99;94092.63;4914738;28;20039;-74
2021/12/17 12:39:38;;;;;;;5.57;3.92;;;;;;;1.99;66.89;94086.09;4928032;28;20454;-74
2021/12/17 12:42:12;;;;;;;6.32;3.70;;;;;;;1.82;66.35;94059.19;4934698;28;20074;-74
2021/12/17 12:44:43;;;;;;;4.03;3.63;;;;;;;1.92;66.21;94082.88;4938428;28;20039;-75
2021/12/17 12:47:20;;;;;;;4.78;3.35;;;;;;;1.81;65.96;94091.72;4931937;28;20050;-75
2021/12/17 12:49:49;;;;;;;3.20;2.78;;;;;;;1.60;66.25;94057.47;4936808;28;20062;-75
2021/12/17 12:52:15;;;;;;;3.58;2.65;;;;;;;1.64;65.55;94070.88;4937807;28;20031;-74
2021/12/17 12:54:41;;;;;;;3.63;3.33;;;;;;;1.66;66.47;94093.19;4939640;28;20633;-74
2021/12/17 12:57:06;;;;;;;3.67;3.38;;;;;;;1.53;66.03;94075.22;4936474;28;20031;-75
2021/12/17 12:59:32;;;;;;;2.97;2.22;;;;;;;1.60;65.78;94083.69;4940634;28;20667;-74
2021/12/17 13:01:58;;;;;;;3.33;2.60;;;;;;;1.57;65.27;94092.03;4937030;28;21366;-74
2021/12/17 13:04:23;;;;;;;4.57;2.80;;;;;;;1.34;65.44;94066.16;4936929;28;20490;-74
2021/12/17 13:06:49;;;;;;;3.67;3.00;;;;;;;1.29;64.45;94055.63;4936271;28;20040;-74
2021/12/17 13:09:27;;;;;;;2.35;2.13;;;;;;;1.50;64.32;94067.88;4937767;28;20052;-75
2021/12/17 13:11:53;;;;;;;2.60;1.90;;;;;;;1.46;63.27;94053.69;4936488;28;20122;-74
2021/12/17 13:14:23;;;;;;;2.20;2.00;;;;;;;1.63;63.31;94072.69;4935445;28;20053;-74
2021/12/17 13:17:06;;;;;;;3.45;2.58;;;;;;;1.84;61.84;94097.25;4937983;28;20041;-73
2021/12/17 13:22:40;;;;;;;3.70;2.78;;;;;;;1.82;62.02;94109.81;4931306;28;20418;-74
2021/12/17 13:25:01;;;;;;;4.95;3.53;;;;;;;1.74;62.81;94109.47;4940801;28;20055;-74
2021/12/17 13:27:27;;;;;;;3.85;3.50;;;;;;;1.75;62.51;94090.88;4937960;28;20053;-74
2021/12/17 13:29:52;;;;;;;5.60;3.58;;;;;;;1.89;62.21;94107.00;4938851;28;20039;-74
2021/12/17 13:32:18;;;;;;;4.22;2.75;;;;;;;1.64;61.63;94074.28;4939590;28;20058;-74
2021/12/17 13:34:47;;;;;;;3.08;2.42;;;;;;;1.68;62.18;94085.03;4938662;28;20520;-74
2021/12/17 13:37:32;;;;;;;5.63;3.20;;;;;;;1.72;62.28;94109.72;4939175;28;20111;-73
2021/12/17 13:40:07;;;;;;;3.58;2.95;;;;;;;1.70;62.21;94105.78;4936260;28;20295;-75
2021/12/17 13:42:38;;;;;;;4.45;2.90;;;;;;;1.61;62.22;94106.25;4958059;28;20034;-75
2021/12/17 13:45:05;;;;;;;5.03;3.75;;;;;;;1.66;62.06;94093.19;4958992;28;20121;-74
2021/12/17 13:47:35;;;;;;;3.25;2.95;;;;;;;1.66;61.18;94098.44;4956536;28;20046;-74
2021/12/17 13:50:33;;;;;;;5.07;3.47;;;;;;;1.76;61.65;94102.16;4957767;28;20620;-75
2021/12/17 13:53:04;;;;;;;5.22;3.95;;;;;;;1.82;61.54;94080.94;4956843;28;20050;-75
2021/12/17 13:55:32;;;;;;;2.55;2.20;;;;;;;1.84;61.08;94099.06;4957657;28;20037;-74
2021/12/17 13:58:01;;;;;;;4.07;3.13;;;;;;;1.77;61.28;94061.78;4958828;28;20109;-75
2021/12/17 14:00:32;;;;;;;4.20;2.97;;;;;;;1.88;60.99;94068.69;4955222;28;20035;-74
2021/12/17 14:02:59;;;;;;;4.13;2.97;;;;;;;2.09;60.27;94075.66;4940115;28;20035;-75
2021/12/17 14:05:28;;;;;;;3.95;3.50;;;;;;;2.14;59.77;94080.94;4957864;28;20495;-74
2021/12/17 14:07:59;;;;;;;4.68;3.42;;;;;;;2.14;59.33;94057.31;4939061;28;20407;-74
2021/12/17 14:10:28;;;;;;;4.65;3.47;;;;;;;2.19;59.43;94064.44;4957522;28;20038;-74
2021/12/17 14:12:54;;;;;;;3.38;2.88;;;;;;;1.97;59.90;94056.69;4955628;28;20312;-74
2021/12/17 14:15:22;;;;;;;5.30;4.05;;;;;;;1.87;60.35;94062.66;4955925;28;20042;-75
2021/12/17 14:18:00;;;;;;;2.70;2.50;;;;;;;1.91;60.42;94074.22;4955428;28;20038;-74
2021/12/17 14:20:28;;;;;;;2.80;2.45;;;;;;;1.95;60.39;94079.78;4953130;28;20038;-75
2021/12/17 14:23:05;;;;;;;2.20;1.70;;;;;;;2.06;60.25;94084.81;4937976;28;20501;-74
2021/12/17 14:25:39;;;;;;;3.63;2.08;;;;;;;1.99;60.17;94104.47;4955641;28;20497;-74
2021/12/17 14:28:07;;;;;;;3.47;2.45;;;;;;;1.93;60.80;94100.22;4953398;28;20057;-74
2021/12/17 14:30:33;;;;;;;3.45;2.63;;;;;;;1.67;61.00;94096.56;4950522;28;20055;-74
2021/12/17 14:33:33;;;;;;;3.63;3.05;;;;;;;1.79;60.93;94085.91;4948682;28;20347;-73
2021/12/17 14:36:08;;;;;;;3.17;2.60;;;;;;;1.99;60.58;94107.06;4956899;28;21299;-75
2021/12/17 14:38:45;;;;;;;2.67;2.47;;;;;;;1.97;60.48;94101.28;4943849;28;20034;-74
2021/12/17 14:41:17;;;;;;;4.20;2.83;;;;;;;1.94;60.91;94099.97;4955055;28;20562;-74